KRBL/RBL METAR and TAF weather

Enter ICAO airport designator
Station Type Date Time Source
KRBL METAR 2018/12/10 12:54 UTC NOAA

KRBL 101254Z AUTO 35005KT 9SM FEW011 OVC033 08/07 A3025 RMK AO2 RAE45 SLP244 P0000 T00830067


Station Type Date Time Source
KRBL Decoded METAR 2018/12/10 12:54 UTC NOAA

RED BLUFF MUNICIPAL AIRPORT, CA, United States (KRBL) 40-09N 122-15W 104M
Dec 10, 2018 - 07:54 AM EST / 2018.12.10 1254 UTC
Wind: from the N (350 degrees) at 6 MPH (5 KT):0
Visibility: 9 mile(s):0
Sky conditions: overcast
Precipitation last hour: A trace
Temperature: 46.9 F (8.3 C)
Dew Point: 44.1 F (6.7 C)
Relative Humidity: 89%
Pressure (altimeter): 30.25 in. Hg (1024 hPa)
ob: KRBL 101254Z AUTO 35005KT 9SM FEW011 OVC033 08/07 A3025 RMK AO2 RAE45 SLP244 P0000 T00830067
cycle: 13

Station Type Date Time Source
KRBL TAF 2018/12/10 12:42 UTC NOAA

TAF KRBL 101139Z 1012/1112 33004KT P6SM -RA OVC040
TEMPO 1014/1018 4SM BR
FM101800 34007KT P6SM SCT250
FM110300 34005KT P6SM SCT250


Example: see airport list